Pleasure Ridge Park, Kentucky
Current Conditions -  °F | °C
As of 10:56 PM on Wednesday 22 Oct 2014 (Local Time) from KSDF Reporting Station
Clear Clear  
Wind Chill: 50°   Ceiling: Unl
Heat Index: 50°   Visibility: 10mi
Dew Point: 41°   Wind: 10mph
Humidity: 71%   Direction: 110°ESE
Pressure: 30.25"   Gusts: NA
Location:  38.14°N, 85.84°W
Report Text: KSDF 230256Z 11009KT 10SM CLR 10/05 A3025 RMK AO2 SLP245 T01000050 50002
Loading
Personal Weather Stations






























Interactive Weather Map
Tropical Storm Tracking
New forecast layout! Learn more

10-Day Weather Forecast

Advertisements
Track Severe Weather on mobile